Time;durP1;ratioP1;P1;durP2;ratioP2;P2;SDS_P1;SDS_P2;PMS_P1;PMS_P2;Temp;Humidity;BMP_temperature;BMP_pressure;BME280_temperature;BME280_humidity;BME280_pressure;Samples;Min_cycle;Max_cycle;Signal;HPM_P1;HPM_P2
2024/01/10 00:00:28;;;;;;;;;;;;;;;-0.10;43.69;102142.22;5481852;32;34596;-87
2024/01/10 00:03:30;;;;;;;;;;;;;;;-0.56;45.49;102157.06;5487397;32;35307;-74
2024/01/10 00:06:32;;;;;;;;;;;;;;;-0.08;44.64;102148.31;5489407;32;34291;-75
2024/01/10 00:09:34;;;;;;;;;;;;;;;-0.08;44.80;102149.19;5498077;32;35261;-73
2024/01/10 00:12:37;;;;;;;;;;;;;;;-0.04;45.08;102143.31;5487327;32;34862;-73
2024/01/10 00:15:39;;;;;;;;;;;;;;;-0.48;46.29;102148.72;5484758;32;35570;-73
2024/01/10 00:18:41;;;;;;;;;;;;;;;-0.38;46.54;102159.41;5484409;32;34673;-88
2024/01/10 00:21:43;;;;;;;;;;;;;;;-0.06;45.71;102165.66;5485410;32;34226;-73
2024/01/10 00:24:45;;;;;;;;;;;;;;;0.40;44.88;102156.75;5497851;32;35345;-80
2024/01/10 00:27:48;;;;;;;;;;;;;;;0.44;44.84;102163.75;5487463;32;34539;-80
2024/01/10 00:30:50;;;;;;;;;;;;;;;-0.23;46.79;102165.91;5481650;32;35605;-88
2024/01/10 00:33:52;;;;;;;;;;;;;;;-0.53;47.72;102158.00;5488148;32;35888;-73
2024/01/10 00:36:54;;;;;;;;;;;;;;;-0.57;48.01;102157.91;5473035;32;35824;-88
2024/01/10 00:39:57;;;;;;;;;;;;;;;-0.89;49.11;102166.22;5480759;32;34430;-74
2024/01/10 00:42:59;;;;;;;;;;;;;;;-0.76;49.21;102171.00;5502104;32;34838;-74
2024/01/10 00:46:01;;;;;;;;;;;;;;;-0.71;49.58;102165.97;5487643;32;32708;-87
2024/01/10 00:49:03;;;;;;;;;;;;;;;-0.11;47.84;102172.37;5486154;32;34097;-87
2024/01/10 00:52:06;;;;;;;;;;;;;;;-0.09;47.03;102164.66;5483946;32;35885;-75
2024/01/10 00:55:08;;;;;;;;;;;;;;;-0.14;46.82;102158.47;5484569;32;35315;-74
2024/01/10 00:58:10;;;;;;;;;;;;;;;-0.44;47.95;102164.38;5466652;32;34494;-88
2024/01/10 01:01:12;;;;;;;;;;;;;;;0.35;46.07;102168.66;5472041;32;34223;-74
2024/01/10 01:04:14;;;;;;;;;;;;;;;0.17;45.91;102162.91;5503140;32;34588;-89
2024/01/10 01:07:16;;;;;;;;;;;;;;;0.01;45.72;102166.72;5503638;32;34961;-89
2024/01/10 01:10:19;;;;;;;;;;;;;;;-0.06;46.06;102169.94;5504519;31;33764;-74
2024/01/10 01:13:21;;;;;;;;;;;;;;;-0.45;46.42;102174.62;5480714;31;34329;-73
2024/01/10 01:16:23;;;;;;;;;;;;;;;-0.58;47.37;102176.81;5491002;32;34953;-87
2024/01/10 01:19:29;;;;;;;;;;;;;;;-0.53;47.12;102174.38;5492388;32;34867;-87
2024/01/10 01:22:53;;;;;;;;;;;;;;;-0.66;48.12;102178.22;5481010;32;34768;-88
2024/01/10 01:25:55;;;;;;;;;;;;;;;-0.06;46.37;102177.69;5491363;32;34899;-82
2024/01/10 01:28:58;;;;;;;;;;;;;;;-0.18;46.53;102177.28;5486839;32;34936;-87
2024/01/10 01:32:00;;;;;;;;;;;;;;;0.03;46.46;102174.53;5469538;32;34373;-74
2024/01/10 01:35:03;;;;;;;;;;;;;;;0.52;45.58;102166.59;5500380;32;35037;-73
2024/01/10 01:38:05;;;;;;;;;;;;;;;-0.94;49.41;102172.91;5499629;32;35427;-73
2024/01/10 01:41:08;;;;;;;;;;;;;;;-0.26;48.09;102153.75;5485205;32;35386;-81
2024/01/10 01:44:10;;;;;;;;;;;;;;;0.53;46.70;102171.81;5470339;32;34803;-73
2024/01/10 01:47:12;;;;;;;;;;;;;;;0.24;47.27;102172.63;5503074;32;34076;-74
2024/01/10 01:50:15;;;;;;;;;;;;;;;-0.23;48.45;102169.37;5481214;32;34687;-89
2024/01/10 01:53:17;;;;;;;;;;;;;;;-0.17;48.76;102169.59;5490511;32;34221;-73
2024/01/10 01:56:19;;;;;;;;;;;;;;;-0.34;49.20;102160.38;5480548;32;35332;-74
2024/01/10 01:59:22;;;;;;;;;;;;;;;-0.74;50.92;102166.75;5482698;32;34870;-73
2024/01/10 02:02:24;;;;;;;;;;;;;;;-0.55;50.73;102161.41;5475761;32;35480;-87
2024/01/10 02:05:27;;;;;;;;;;;;;;;-0.75;51.06;102167.59;5485313;32;35119;-88
2024/01/10 02:08:31;;;;;;;;;;;;;;;-1.24;52.61;102158.06;5471756;32;34504;-87
2024/01/10 02:11:33;;;;;;;;;;;;;;;-1.18;52.31;102162.56;5499370;32;35283;-73
2024/01/10 02:14:35;;;;;;;;;;;;;;;-0.59;50.91;102162.13;5485762;32;34210;-89
2024/01/10 02:17:37;;;;;;;;;;;;;;;-0.72;51.30;102159.06;5485529;32;34628;-73
2024/01/10 02:20:42;;;;;;;;;;;;;;;-0.81;51.18;102157.03;5482600;32;35429;-73
2024/01/10 02:23:44;;;;;;;;;;;;;;;-0.49;50.31;102154.72;5485847;32;35833;-87
2024/01/10 02:26:46;;;;;;;;;;;;;;;-0.47;49.90;102153.03;5481504;32;34395;-73
2024/01/10 02:29:48;;;;;;;;;;;;;;;-0.30;48.83;102146.75;5472563;32;35116;-78
2024/01/10 02:32:51;;;;;;;;;;;;;;;-1.08;50.93;102154.34;5475206;32;35472;-73
2024/01/10 02:35:53;;;;;;;;;;;;;;;-0.65;50.00;102154.16;5470380;32;34743;-80
2024/01/10 02:38:55;;;;;;;;;;;;;;;-1.27;51.69;102160.53;5478825;31;37234;-74
2024/01/10 02:41:58;;;;;;;;;;;;;;;-1.36;51.50;102155.03;5479832;32;34238;-74
2024/01/10 02:45:00;;;;;;;;;;;;;;;-0.82;50.30;102152.72;5484652;32;34672;-88
2024/01/10 02:48:02;;;;;;;;;;;;;;;-0.46;49.83;102147.94;5493044;32;34715;-87
2024/01/10 02:51:05;;;;;;;;;;;;;;;-1.06;51.44;102141.50;5485155;32;33258;-74
2024/01/10 02:54:07;;;;;;;;;;;;;;;-0.71;50.52;102153.97;5480407;32;34335;-73
2024/01/10 02:57:09;;;;;;;;;;;;;;;-1.35;52.73;102156.81;5495315;32;34735;-88
2024/01/10 03:00:12;;;;;;;;;;;;;;;-1.22;52.03;102159.03;5472082;32;35364;-88
2024/01/10 03:03:14;;;;;;;;;;;;;;;-1.36;52.02;102158.47;5494206;32;34233;-73
2024/01/10 03:06:17;;;;;;;;;;;;;;;-2.01;50.79;102161.94;5490492;32;37664;-72
2024/01/10 03:09:22;;;;;;;;;;;;;;;-1.37;49.53;102154.12;5479027;32;35328;-73
2024/01/10 03:12:24;;;;;;;;;;;;;;;-1.01;48.25;102158.03;5497003;32;34315;-73
2024/01/10 03:15:42;;;;;;;;;;;;;;;-1.29;49.05;102154.41;5496936;32;34753;-88
2024/01/10 03:18:58;;;;;;;;;;;;;;;-1.50;50.29;102164.81;5492397;32;35388;-87
2024/01/10 03:22:01;;;;;;;;;;;;;;;-0.88;48.30;102163.69;5497548;32;35800;-88
2024/01/10 03:25:03;;;;;;;;;;;;;;;-0.25;46.69;102155.53;5495220;32;34347;-72
2024/01/10 03:28:05;;;;;;;;;;;;;;;-0.21;45.56;102151.34;5496730;32;34249;-73
2024/01/10 03:31:07;;;;;;;;;;;;;;;-0.79;46.67;102154.50;5475256;32;34172;-72
2024/01/10 03:34:10;;;;;;;;;;;;;;;-0.83;46.33;102156.13;5493096;32;34294;-73
2024/01/10 03:37:12;;;;;;;;;;;;;;;-0.84;46.96;102156.91;5494373;32;35107;-73
2024/01/10 03:40:15;;;;;;;;;;;;;;;-2.13;49.79;102158.00;5478812;32;36759;-73
2024/01/10 03:43:17;;;;;;;;;;;;;;;-2.07;49.94;102150.50;5480883;32;34323;-87
2024/01/10 03:46:19;;;;;;;;;;;;;;;-2.12;50.29;102154.63;5481967;32;34256;-88
2024/01/10 03:49:21;;;;;;;;;;;;;;;-2.10;50.22;102150.41;5498374;32;34538;-73
2024/01/10 03:56:26;;;;;;;;;;;;;;;-2.11;51.24;102148.66;5435700;32;35939;-73
2024/01/10 03:59:39;;;;;;;;;;;;;;;-2.27;52.12;102153.16;5422740;32;33946;-74
2024/01/10 04:02:49;;;;;;;;;;;;;;;-2.29;51.54;102152.22;5414398;32;34736;-73
2024/01/10 04:05:53;;;;;;;;;;;;;;;-1.44;49.24;102153.84;5438137;32;34164;-73
2024/01/10 04:08:56;;;;;;;;;;;;;;;-2.81;53.55;102157.75;5416262;32;35801;-73
2024/01/10 04:11:58;;;;;;;;;;;;;;;-2.12;52.53;102158.06;5433599;32;34849;-74
2024/01/10 04:15:00;;;;;;;;;;;;;;;-1.71;51.87;102156.25;5443150;32;38020;-88
2024/01/10 04:18:02;;;;;;;;;;;;;;;-1.89;52.31;102156.41;5428242;32;34114;-88
2024/01/10 04:21:52;;;;;;;;;;;;;;;-1.76;52.19;102157.78;5434226;32;34933;-88
2024/01/10 04:25:04;;;;;;;;;;;;;;;-1.86;52.62;102161.69;5426024;32;34911;-74
2024/01/10 04:28:23;;;;;;;;;;;;;;;-1.52;51.88;102157.84;5412263;32;34717;-75
2024/01/10 04:31:25;;;;;;;;;;;;;;;-1.72;52.63;102154.50;5431601;32;34364;-88
2024/01/10 04:34:27;;;;;;;;;;;;;;;-1.30;51.33;102155.25;5435965;32;34155;-86
2024/01/10 04:37:31;;;;;;;;;;;;;;;-0.76;50.09;102155.50;5437878;32;35229;-73
2024/01/10 04:40:34;;;;;;;;;;;;;;;-1.11;51.07;102152.53;5434820;32;34400;-82
2024/01/10 04:43:36;;;;;;;;;;;;;;;-0.49;49.38;102141.78;5431233;32;35524;-74
2024/01/10 04:46:39;;;;;;;;;;;;;;;-0.79;50.22;102164.84;5434615;32;34532;-87
2024/01/10 04:49:42;;;;;;;;;;;;;;;-1.47;51.45;102172.69;5438284;32;34506;-74
2024/01/10 04:52:44;;;;;;;;;;;;;;;-0.84;50.64;102168.16;5457123;32;34653;-73
2024/01/10 04:55:46;;;;;;;;;;;;;;;-0.57;49.50;102165.66;5462293;32;35357;-87
2024/01/10 04:58:52;;;;;;;;;;;;;;;-1.02;50.62;102177.81;5468628;32;35267;-73
2024/01/10 05:01:54;;;;;;;;;;;;;;;-1.23;50.71;102177.88;5460937;32;34145;-73
2024/01/10 05:04:57;;;;;;;;;;;;;;;-1.72;52.54;102181.16;5477498;32;35541;-87
2024/01/10 05:08:01;;;;;;;;;;;;;;;-1.86;53.96;102182.31;5468841;32;34107;-74
2024/01/10 05:11:03;;;;;;;;;;;;;;;-1.94;54.60;102183.69;5447587;32;34042;-87
2024/01/10 05:14:06;;;;;;;;;;;;;;;-1.91;54.94;102184.72;5470207;32;34286;-90
2024/01/10 05:17:08;;;;;;;;;;;;;;;-2.26;56.53;102184.94;5469736;32;34154;-88
2024/01/10 05:20:42;;;;;;;;;;;;;;;-2.53;57.13;102185.53;5475241;32;34461;-82
2024/01/10 05:24:11;;;;;;;;;;;;;;;-2.30;57.24;102189.09;5455148;32;34178;-72
2024/01/10 05:27:47;;;;;;;;;;;;;;;-1.42;55.23;102189.22;5450878;32;34657;-81
2024/01/10 05:30:58;;;;;;;;;;;;;;;-0.75;52.55;102174.47;5452192;32;34290;-87
2024/01/10 05:34:00;;;;;;;;;;;;;;;-1.26;53.89;102185.50;5443126;32;35435;-87
2024/01/10 05:37:03;;;;;;;;;;;;;;;-1.85;55.05;102178.91;5433404;32;33944;-87
2024/01/10 05:40:06;;;;;;;;;;;;;;;-1.93;56.23;102183.78;5462766;32;35612;-88
2024/01/10 05:43:10;;;;;;;;;;;;;;;-2.18;57.27;102188.75;5449459;32;34264;-87
2024/01/10 05:46:12;;;;;;;;;;;;;;;-1.77;56.18;102179.22;5455356;32;34244;-87
2024/01/10 05:49:14;;;;;;;;;;;;;;;-0.97;53.54;102183.13;5440167;32;35464;-74
2024/01/10 05:52:16;;;;;;;;;;;;;;;-1.26;52.73;102179.47;5456325;32;34042;-73
2024/01/10 05:55:19;;;;;;;;;;;;;;;-1.64;52.64;102184.91;5461404;32;34470;-87
2024/01/10 05:58:21;;;;;;;;;;;;;;;-2.23;54.33;102175.66;5444928;32;35329;-88
2024/01/10 06:01:23;;;;;;;;;;;;;;;-2.22;55.48;102180.00;5461746;32;35346;-87
2024/01/10 06:04:27;;;;;;;;;;;;;;;-2.19;54.97;102180.13;5457447;32;34265;-82
2024/01/10 06:07:29;;;;;;;;;;;;;;;-2.48;54.81;102181.47;5464001;32;34331;-74
2024/01/10 06:10:31;;;;;;;;;;;;;;;-3.24;58.00;102190.97;5455833;32;34388;-74
2024/01/10 06:13:38;;;;;;;;;;;;;;;-2.24;54.78;102184.22;5466645;32;34576;-72
2024/01/10 06:16:54;;;;;;;;;;;;;;;-3.09;57.17;102201.06;5495125;32;35405;-90
2024/01/10 06:19:59;;;;;;;;;;;;;;;-2.37;55.64;102191.38;5466956;32;35879;-73
2024/01/10 06:23:02;;;;;;;;;;;;;;;-1.77;54.44;102195.56;5494180;32;34079;-87
2024/01/10 06:26:04;;;;;;;;;;;;;;;-1.74;52.99;102187.97;5497693;32;34733;-88
2024/01/10 06:29:07;;;;;;;;;;;;;;;-1.13;52.45;102184.28;5495518;32;34499;-73
2024/01/10 06:32:10;;;;;;;;;;;;;;;-1.22;51.46;102183.94;5459431;32;34734;-87
2024/01/10 06:35:13;;;;;;;;;;;;;;;-1.37;52.33;102189.37;5476393;32;34241;-87
2024/01/10 06:38:16;;;;;;;;;;;;;;;-2.05;54.50;102191.00;5466681;32;34742;-81
2024/01/10 06:41:23;;;;;;;;;;;;;;;-1.18;52.75;102193.53;5462479;32;34485;-75
2024/01/10 06:44:27;;;;;;;;;;;;;;;-0.58;50.66;102197.47;5496637;32;33970;-80
2024/01/10 06:47:30;;;;;;;;;;;;;;;-0.61;50.63;102194.78;5492904;32;35227;-78
2024/01/10 06:50:32;;;;;;;;;;;;;;;-0.73;50.81;102203.78;5486128;32;34604;-73
2024/01/10 06:53:34;;;;;;;;;;;;;;;-0.56;50.33;102211.31;5472209;32;34356;-72
2024/01/10 06:56:36;;;;;;;;;;;;;;;-0.40;50.02;102206.69;5472079;32;34181;-88
2024/01/10 06:59:41;;;;;;;;;;;;;;;-0.40;49.50;102204.97;5480030;32;34951;-89
2024/01/10 07:02:44;;;;;;;;;;;;;;;-0.40;49.76;102211.84;5479483;32;34763;-73
2024/01/10 07:05:46;;;;;;;;;;;;;;;-0.42;49.85;102213.50;5468344;32;34892;-73
2024/01/10 07:08:50;;;;;;;;;;;;;;;-0.97;50.70;102220.13;5491518;31;34440;-90
2024/01/10 07:11:53;;;;;;;;;;;;;;;-0.82;51.13;102217.25;5478340;31;34517;-72
2024/01/10 07:14:56;;;;;;;;;;;;;;;-0.76;51.77;102222.66;5495170;31;33809;-78
2024/01/10 07:17:58;;;;;;;;;;;;;;;-1.24;52.22;102224.25;5464723;32;35374;-75
2024/01/10 07:21:00;;;;;;;;;;;;;;;-1.06;52.50;102216.34;5484533;31;33987;-68
2024/01/10 07:24:08;;;;;;;;;;;;;;;-0.82;52.58;102228.47;5496632;31;34376;-74
2024/01/10 07:27:14;;;;;;;;;;;;;;;-0.65;51.73;102220.44;5483063;32;34754;-74
2024/01/10 07:30:20;;;;;;;;;;;;;;;-1.56;53.38;102218.72;5479614;32;33399;-82
2024/01/10 07:33:23;;;;;;;;;;;;;;;-1.39;53.60;102212.53;5496067;32;34375;-70
2024/01/10 07:36:33;;;;;;;;;;;;;;;-1.55;54.47;102215.31;5495506;32;34070;-70
2024/01/10 07:39:35;;;;;;;;;;;;;;;-1.36;54.62;102211.75;5480695;32;35275;-83
2024/01/10 07:42:43;;;;;;;;;;;;;;;-1.19;54.38;102220.16;5489163;32;35269;-71
2024/01/10 07:45:48;;;;;;;;;;;;;;;-0.74;53.02;102210.66;5480693;32;34262;-87
2024/01/10 07:48:53;;;;;;;;;;;;;;;-0.94;53.68;102222.84;5471828;31;34532;-72
2024/01/10 07:51:55;;;;;;;;;;;;;;;0.14;51.05;102219.72;5488808;31;37351;-83
2024/01/10 07:55:01;;;;;;;;;;;;;;;-0.10;51.10;102205.16;5485037;32;34250;-77
2024/01/10 07:58:13;;;;;;;;;;;;;;;-0.18;50.81;102216.94;5474611;32;34310;-69
2024/01/10 08:01:15;;;;;;;;;;;;;;;-0.97;54.07;102221.84;5475594;32;35756;-79
2024/01/10 08:04:17;;;;;;;;;;;;;;;-0.61;53.12;102233.50;5478433;32;34269;-82
2024/01/10 08:07:20;;;;;;;;;;;;;;;-0.77;54.47;102228.62;5485912;32;34453;-70
2024/01/10 08:10:27;;;;;;;;;;;;;;;0.09;52.13;102226.44;5491611;32;34923;-75
2024/01/10 08:13:33;;;;;;;;;;;;;;;-0.06;49.96;102221.66;5478814;32;34091;-76
2024/01/10 08:16:35;;;;;;;;;;;;;;;-0.01;50.91;102217.47;5493455;32;34201;-77
2024/01/10 08:19:38;;;;;;;;;;;;;;;-0.31;50.25;102227.69;5492399;32;35043;-73
2024/01/10 08:22:44;;;;;;;;;;;;;;;0.16;49.22;102230.97;5452729;32;35379;-77
2024/01/10 08:25:50;;;;;;;;;;;;;;;-0.24;51.20;102234.81;5466324;32;35467;-83
2024/01/10 08:28:52;;;;;;;;;;;;;;;-0.22;51.66;102233.16;5488088;32;34210;-73
2024/01/10 08:31:54;;;;;;;;;;;;;;;-0.08;50.77;102231.03;5451427;32;34337;-72
2024/01/10 08:34:58;;;;;;;;;;;;;;;-0.14;50.17;102239.44;5472290;32;34510;-72
2024/01/10 08:38:04;;;;;;;;;;;;;;;0.80;48.29;102241.66;5479787;31;34275;-75
2024/01/10 08:41:19;;;;;;;;;;;;;;;0.11;48.70;102240.28;5479370;32;34346;-75
2024/01/10 08:44:22;;;;;;;;;;;;;;;-0.10;49.35;102241.31;5483768;32;34597;-81
2024/01/10 08:47:31;;;;;;;;;;;;;;;-0.10;49.15;102245.62;5463662;32;34820;-77
2024/01/10 08:50:39;;;;;;;;;;;;;;;0.04;48.92;102233.16;5492110;32;34217;-74
2024/01/10 08:53:44;;;;;;;;;;;;;;;0.53;47.33;102238.22;5488311;31;34288;-82
2024/01/10 08:56:49;;;;;;;;;;;;;;;-0.17;48.28;102236.78;5494425;32;34356;-72
2024/01/10 08:59:52;;;;;;;;;;;;;;;0.03;47.76;102234.00;5475532;32;34247;-77
2024/01/10 09:02:57;;;;;;;;;;;;;;;0.22;46.59;102242.41;5477705;32;35981;-77
2024/01/10 09:06:00;;;;;;;;;;;;;;;0.66;44.98;102236.87;5462358;32;39083;-73
2024/01/10 09:09:13;;;;;;;;;;;;;;;0.46;46.08;102234.56;5483949;31;34021;-75
2024/01/10 09:12:17;;;;;;;;;;;;;;;0.18;46.91;102235.34;5475553;32;35681;-77
2024/01/10 09:15:21;;;;;;;;;;;;;;;0.81;45.88;102230.44;5490736;32;35416;-77
2024/01/10 09:18:23;;;;;;;;;;;;;;;0.49;47.08;102226.00;5486044;31;35518;-70
2024/01/10 09:21:26;;;;;;;;;;;;;;;0.33;46.40;102231.53;5471339;32;35669;-70
2024/01/10 09:24:29;;;;;;;;;;;;;;;0.29;46.15;102227.09;5492829;32;34300;-76
2024/01/10 09:27:32;;;;;;;;;;;;;;;1.57;43.97;102218.81;5486003;32;35520;-76
2024/01/10 09:30:34;;;;;;;;;;;;;;;1.50;44.50;102213.44;5480599;31;33409;-73
2024/01/10 09:33:37;;;;;;;;;;;;;;;2.29;43.13;102210.25;5490195;32;34389;-76
2024/01/10 09:36:45;;;;;;;;;;;;;;;1.28;45.27;102210.22;5476632;31;36009;-71
2024/01/10 09:39:47;;;;;;;;;;;;;;;1.58;44.26;102202.41;5485846;31;33327;-82
2024/01/10 09:42:51;;;;;;;;;;;;;;;1.98;42.83;102199.97;5465853;32;34240;-76
2024/01/10 09:46:04;;;;;;;;;;;;;;;2.95;40.04;102199.63;5476309;32;34176;-77
2024/01/10 09:49:07;;;;;;;;;;;;;;;2.82;39.45;102189.81;5493058;32;36414;-77
2024/01/10 09:52:10;;;;;;;;;;;;;;;2.46;39.87;102189.03;5495280;32;33839;-73
2024/01/10 09:55:12;;;;;;;;;;;;;;;1.95;40.63;102193.00;5481229;32;35850;-73
2024/01/10 09:58:14;;;;;;;;;;;;;;;1.61;41.83;102191.25;5467830;32;34412;-77
2024/01/10 10:01:16;;;;;;;;;;;;;;;2.51;40.11;102185.66;5474798;32;35333;-75
2024/01/10 10:04:21;;;;;;;;;;;;;;;1.89;41.47;102183.34;5477534;32;36290;-74
2024/01/10 10:07:24;;;;;;;;;;;;;;;1.67;41.31;102174.97;5467891;32;34424;-73
2024/01/10 10:10:28;;;;;;;;;;;;;;;1.79;41.74;102176.16;5465750;32;35069;-74
2024/01/10 10:13:30;;;;;;;;;;;;;;;2.84;39.48;102175.16;5474822;32;35383;-75
2024/01/10 10:16:32;;;;;;;;;;;;;;;2.41;40.17;102169.03;5493263;31;34533;-71
2024/01/10 10:19:37;;;;;;;;;;;;;;;3.30;38.46;102154.44;5404994;32;2185034;-71
2024/01/10 10:22:50;;;;;;;;;;;;;;;3.28;38.38;102146.56;5473631;32;32668;-75
2024/01/10 10:25:52;;;;;;;;;;;;;;;2.00;40.33;102155.09;5478379;32;34541;-73
2024/01/10 10:28:54;;;;;;;;;;;;;;;2.87;39.33;102153.56;5489344;32;34238;-85
2024/01/10 10:32:00;;;;;;;;;;;;;;;2.55;40.00;102151.16;5491822;32;34320;-70
2024/01/10 10:35:03;;;;;;;;;;;;;;;3.66;37.62;102149.00;5470400;32;35589;-85
2024/01/10 10:38:08;;;;;;;;;;;;;;;3.78;37.08;102150.09;5473445;32;34289;-71
2024/01/10 10:41:11;;;;;;;;;;;;;;;3.88;36.62;102142.44;5476651;32;34340;-71
2024/01/10 10:44:16;;;;;;;;;;;;;;;3.95;36.55;102136.50;5481607;32;36184;-71
2024/01/10 10:47:19;;;;;;;;;;;;;;;3.85;36.37;102126.78;5489377;32;34241;-74
2024/01/10 10:50:24;;;;;;;;;;;;;;;2.60;38.17;102135.69;5469279;31;36010;-73
2024/01/10 10:53:29;;;;;;;;;;;;;;;3.02;38.10;102127.00;5465323;32;36144;-72
2024/01/10 10:56:34;;;;;;;;;;;;;;;3.39;37.66;102120.78;5472175;32;35176;-77
2024/01/10 10:59:37;;;;;;;;;;;;;;;3.72;36.89;102113.56;5479370;32;37010;-74
2024/01/10 11:02:40;;;;;;;;;;;;;;;3.97;35.90;102113.97;5485237;32;34204;-76
2024/01/10 11:05:46;;;;;;;;;;;;;;;4.41;35.22;102106.81;5476331;32;35461;-72
2024/01/10 11:08:53;;;;;;;;;;;;;;;3.06;37.30;102118.44;5493100;32;35409;-73
2024/01/10 11:11:58;;;;;;;;;;;;;;;4.02;36.19;102105.38;5475707;32;35869;-72
2024/01/10 11:15:13;;;;;;;;;;;;;;;3.62;37.25;102105.59;5497553;31;35539;-70
2024/01/10 11:18:33;;;;;;;;;;;;;;;4.32;36.31;102091.94;5478648;31;35624;-71
2024/01/10 11:21:45;;;;;;;;;;;;;;;6.95;31.74;102075.00;5475012;32;35632;-79
2024/01/10 11:24:47;;;;;;;;;;;;;;;8.58;29.26;102064.44;5480171;32;34506;-75
2024/01/10 11:27:54;;;;;;;;;;;;;;;8.11;29.94;102068.06;5476881;32;34178;-74
2024/01/10 11:31:05;;;;;;;;;;;;;;;8.30;29.06;102058.38;5472565;32;33900;-72
2024/01/10 11:34:08;;;;;;;;;;;;;;;6.65;30.81;102067.94;5491084;31;35629;-69
2024/01/10 11:37:11;;;;;;;;;;;;;;;8.79;28.74;102052.97;5477626;32;34271;-70
2024/01/10 11:40:13;;;;;;;;;;;;;;;10.15;26.80;102049.25;5480641;32;34835;-70
2024/01/10 11:43:18;;;;;;;;;;;;;;;9.81;26.26;102046.13;5489951;31;36784;-73
2024/01/10 11:46:20;;;;;;;;;;;;;;;10.49;26.08;102047.13;5493193;32;34238;-77
2024/01/10 11:49:25;;;;;;;;;;;;;;;13.01;22.91;102032.19;5478019;31;35425;-73
2024/01/10 11:52:34;;;;;;;;;;;;;;;12.04;23.30;102031.56;5476140;31;35584;-74
2024/01/10 11:55:52;;;;;;;;;;;;;;;10.85;24.83;102035.28;5480192;32;34602;-75
2024/01/10 11:59:04;;;;;;;;;;;;;;;10.54;25.52;102037.44;5489294;32;34298;-76
2024/01/10 12:02:06;;;;;;;;;;;;;;;13.22;22.12;102019.41;5471441;32;34354;-72
2024/01/10 12:05:12;;;;;;;;;;;;;;;13.68;21.59;102013.81;5490862;31;34283;-72
2024/01/10 12:08:15;;;;;;;;;;;;;;;12.56;22.57;102012.97;5477581;32;34087;-78
2024/01/10 12:11:17;;;;;;;;;;;;;;;10.62;23.74;102023.31;5492351;32;35157;-76
2024/01/10 12:14:20;;;;;;;;;;;;;;;12.19;23.31;102015.47;5471731;32;34053;-73
2024/01/10 12:17:25;;;;;;;;;;;;;;;13.93;21.19;102002.59;5495878;32;33385;-73
2024/01/10 12:20:28;;;;;;;;;;;;;;;14.99;20.31;101995.94;5486154;31;35797;-71
2024/01/10 12:23:31;;;;;;;;;;;;;;;17.79;17.32;101991.59;5487099;32;34413;-78
2024/01/10 12:26:35;;;;;;;;;;;;;;;17.23;17.88;101992.16;5453784;32;34346;-80
2024/01/10 12:29:38;;;;;;;;;;;;;;;16.78;17.62;102006.37;5463101;32;36019;-71
2024/01/10 12:32:40;;;;;;;;;;;;;;;16.03;18.54;102003.00;5474424;32;35840;-74
2024/01/10 12:35:42;;;;;;;;;;;;;;;10.64;23.09;102027.69;5474017;32;34909;-71
2024/01/10 12:38:47;;;;;;;;;;;;;;;11.00;23.52;102025.41;5487559;31;34171;-71
2024/01/10 12:41:50;;;;;;;;;;;;;;;13.66;21.04;102009.50;5495055;31;34370;-74
2024/01/10 12:44:53;;;;;;;;;;;;;;;13.45;21.17;102005.59;5493376;32;35207;-77
2024/01/10 12:47:55;;;;;;;;;;;;;;;11.89;22.35;102009.03;5477201;32;34334;-77
2024/01/10 12:51:00;;;;;;;;;;;;;;;12.58;22.09;101999.72;5478177;32;34270;-71
2024/01/10 12:54:05;;;;;;;;;;;;;;;11.48;22.92;101997.44;5489263;32;34119;-69
2024/01/10 12:57:07;;;;;;;;;;;;;;;13.54;21.11;101989.53;5480130;32;35355;-74
2024/01/10 13:00:11;;;;;;;;;;;;;;;11.83;22.53;101999.47;5479688;32;34179;-73
2024/01/10 13:03:13;;;;;;;;;;;;;;;11.61;22.80;101992.84;5475645;32;34350;-75
2024/01/10 13:06:17;;;;;;;;;;;;;;;14.59;20.42;101986.59;5480315;32;34112;-71
2024/01/10 13:09:19;;;;;;;;;;;;;;;12.51;21.48;101979.69;5464945;32;34457;-74
2024/01/10 13:12:21;;;;;;;;;;;;;;;13.55;21.47;101981.56;5477542;32;33008;-73
2024/01/10 13:15:23;;;;;;;;;;;;;;;12.77;21.86;101990.50;5479517;32;34650;-72
2024/01/10 13:18:29;;;;;;;;;;;;;;;12.95;21.42;101986.59;5495113;32;34336;-78
2024/01/10 13:21:32;;;;;;;;;;;;;;;12.15;22.35;101985.66;5495210;32;35735;-76
2024/01/10 13:24:34;;;;;;;;;;;;;;;7.75;28.20;102007.91;5476833;32;35576;-75
2024/01/10 13:27:36;;;;;;;;;;;;;;;7.64;29.51;102007.91;5493897;32;36184;-71
2024/01/10 13:30:41;;;;;;;;;;;;;;;7.24;28.92;102014.91;5492652;31;34313;-70
2024/01/10 13:33:44;;;;;;;;;;;;;;;7.78;28.51;102007.88;5491147;32;34396;-74
2024/01/10 13:36:51;;;;;;;;;;;;;;;8.61;27.47;101992.78;5480680;32;34147;-74
2024/01/10 13:39:57;;;;;;;;;;;;;;;6.82;29.08;102011.34;5494074;32;35158;-71
2024/01/10 13:43:02;;;;;;;;;;;;;;;5.34;32.20;102007.94;5493915;32;35361;-68
2024/01/10 13:46:04;;;;;;;;;;;;;;;6.32;30.78;102009.47;5491282;31;36969;-74
2024/01/10 13:49:11;;;;;;;;;;;;;;;5.75;32.00;102007.38;5491205;32;34234;-76
2024/01/10 13:52:17;;;;;;;;;;;;;;;6.12;31.11;101995.47;5495302;32;35318;-73
2024/01/10 13:55:19;;;;;;;;;;;;;;;6.37;30.70;101991.19;5494577;32;34113;-75
2024/01/10 13:58:24;;;;;;;;;;;;;;;5.58;32.69;101999.44;5479031;31;34329;-76
2024/01/10 14:01:26;;;;;;;;;;;;;;;6.68;30.73;101994.78;5474856;32;34202;-72
2024/01/10 14:04:29;;;;;;;;;;;;;;;7.53;30.12;101992.22;5489264;32;35908;-72
2024/01/10 14:07:32;;;;;;;;;;;;;;;8.88;27.48;101976.88;5471585;32;34574;-73
2024/01/10 14:10:34;;;;;;;;;;;;;;;9.95;25.87;101972.44;5469580;32;34217;-76
2024/01/10 14:13:36;;;;;;;;;;;;;;;10.57;25.48;101973.44;5475061;32;34058;-71
2024/01/10 14:16:38;;;;;;;;;;;;;;;11.64;24.47;101974.34;5479381;32;35508;-73
2024/01/10 14:19:40;;;;;;;;;;;;;;;12.13;23.71;101963.75;5482147;32;35343;-74
2024/01/10 14:22:45;;;;;;;;;;;;;;;10.88;25.38;101973.84;5475918;32;33856;-74
2024/01/10 14:25:47;;;;;;;;;;;;;;;9.86;26.88;101972.53;5483185;32;35557;-79
2024/01/10 14:28:52;;;;;;;;;;;;;;;9.72;26.74;101963.06;5477352;32;34443;-72
2024/01/10 14:31:54;;;;;;;;;;;;;;;7.97;29.85;101975.56;5490917;32;37477;-68
2024/01/10 14:35:04;;;;;;;;;;;;;;;8.86;28.44;101970.78;5481362;32;34066;-72
2024/01/10 14:38:11;;;;;;;;;;;;;;;7.41;30.51;101989.63;5490505;32;34200;-73
2024/01/10 14:41:13;;;;;;;;;;;;;;;6.76;31.72;101991.34;5496758;32;36573;-73
2024/01/10 14:44:15;;;;;;;;;;;;;;;5.98;32.98;101990.16;5473937;32;34002;-71
2024/01/10 14:47:18;;;;;;;;;;;;;;;7.04;31.70;101986.13;5481292;32;34633;-72
2024/01/10 14:50:23;;;;;;;;;;;;;;;6.39;32.84;101977.28;5475239;32;35107;-77
2024/01/10 14:53:26;;;;;;;;;;;;;;;5.81;33.92;101983.94;5487510;32;35000;-70
2024/01/10 14:56:28;;;;;;;;;;;;;;;5.30;34.94;101988.81;5474405;32;34595;-72
2024/01/10 14:59:30;;;;;;;;;;;;;;;4.57;36.31;101991.59;5487811;32;34490;-70
2024/01/10 15:02:46;;;;;;;;;;;;;;;4.59;36.44;101994.19;5479697;32;35664;-80
2024/01/10 15:05:48;;;;;;;;;;;;;;;4.18;37.81;101998.91;5461172;32;35058;-74
2024/01/10 15:08:55;;;;;;;;;;;;;;;5.28;35.43;101995.75;5488405;32;35812;-73
2024/01/10 15:12:00;;;;;;;;;;;;;;;5.00;35.32;101994.62;5462754;32;33902;-76
2024/01/10 15:15:02;;;;;;;;;;;;;;;4.65;36.51;102004.69;5473035;32;35090;-73
2024/01/10 15:18:05;;;;;;;;;;;;;;;4.54;36.54;101998.47;5484969;32;34014;-75
2024/01/10 15:21:07;;;;;;;;;;;;;;;4.56;36.52;101995.03;5452908;32;34266;-72
2024/01/10 15:24:09;;;;;;;;;;;;;;;4.28;37.25;102000.78;5473613;32;35345;-76
2024/01/10 15:27:12;;;;;;;;;;;;;;;4.16;37.71;102005.81;5482261;32;35772;-76
2024/01/10 15:30:14;;;;;;;;;;;;;;;4.31;38.10;102012.06;5462311;32;34339;-77
2024/01/10 15:33:19;;;;;;;;;;;;;;;4.36;37.98;101999.13;5482894;31;36010;-70
2024/01/10 15:36:22;;;;;;;;;;;;;;;4.05;38.84;102008.28;5461427;32;35657;-70
2024/01/10 15:39:26;;;;;;;;;;;;;;;3.86;39.33;102014.06;5467441;32;35353;-76
2024/01/10 15:42:28;;;;;;;;;;;;;;;4.06;38.89;102010.03;5479219;32;34538;-76
2024/01/10 15:45:33;;;;;;;;;;;;;;;3.85;38.87;102013.19;5469794;32;34661;-77
2024/01/10 15:48:35;;;;;;;;;;;;;;;4.07;38.27;102001.38;5483239;32;35449;-70
2024/01/10 15:51:37;;;;;;;;;;;;;;;3.87;38.36;102006.31;5482426;32;34643;-76
2024/01/10 15:54:39;;;;;;;;;;;;;;;3.87;38.65;102008.91;5487061;32;38346;-76